Time;durP1;ratioP1;P1;durP2;ratioP2;P2;SDS_P1;SDS_P2;PMS_P1;PMS_P2;Temp;Humidity;BMP_temperature;BMP_pressure;BME280_temperature;BME280_humidity;BME280_pressure;Samples;Min_cycle;Max_cycle;Signal;HPM_P1;HPM_P2
2021/04/18 00:01:12;;;;;;;;;;;21.70;33.60;;;;;;505425;235;1614;-45
2021/04/18 00:03:14;;;;;;;;;;;21.60;33.50;;;;;;505618;235;1072;-45
2021/04/18 00:05:15;;;;;;;;;;;21.70;33.60;;;;;;505327;235;1262;-44
2021/04/18 00:07:16;;;;;;;;;;;21.60;33.60;;;;;;505217;235;1547;-44
2021/04/18 00:09:18;;;;;;;;;;;21.60;33.60;;;;;;505285;235;1119;-44
2021/04/18 00:11:19;;;;;;;;;;;21.60;33.50;;;;;;505533;234;2192;-44
2021/04/18 00:13:20;;;;;;;;;;;21.60;33.50;;;;;;505372;235;1142;-45
2021/04/18 00:15:21;;;;;;;;;;;21.60;33.60;;;;;;505722;235;1127;-44
2021/04/18 00:17:23;;;;;;;;;;;21.70;33.60;;;;;;505860;235;1169;-44
2021/04/18 00:19:24;;;;;;;;;;;21.60;33.60;;;;;;505242;235;1302;-45
2021/04/18 00:21:25;;;;;;;;;;;21.60;33.50;;;;;;505760;234;1173;-45
2021/04/18 00:23:27;;;;;;;;;;;21.60;33.60;;;;;;505822;235;1073;-45
2021/04/18 00:25:28;;;;;;;;;;;21.70;33.60;;;;;;505832;235;1075;-44
2021/04/18 00:27:29;;;;;;;;;;;21.70;33.50;;;;;;505800;235;1043;-44
2021/04/18 00:29:30;;;;;;;;;;;21.70;33.50;;;;;;505550;235;1208;-45
2021/04/18 00:31:32;;;;;;;;;;;21.70;33.60;;;;;;505605;235;2130;-45
2021/04/18 00:33:33;;;;;;;;;;;21.70;33.60;;;;;;505668;235;1045;-45
2021/04/18 00:35:34;;;;;;;;;;;21.70;33.60;;;;;;505465;235;1123;-45
2021/04/18 00:37:35;;;;;;;;;;;21.70;33.60;;;;;;505708;234;1186;-44
2021/04/18 00:39:37;;;;;;;;;;;21.70;33.50;;;;;;505353;235;1106;-45
2021/04/18 00:41:38;;;;;;;;;;;21.70;33.60;;;;;;505260;235;1085;-45
2021/04/18 00:43:39;;;;;;;;;;;21.60;33.60;;;;;;505368;235;1054;-45
2021/04/18 00:45:41;;;;;;;;;;;21.80;33.40;;;;;;505345;235;1172;-45
2021/04/18 00:47:42;;;;;;;;;;;21.40;33.90;;;;;;505527;235;1136;-44
2021/04/18 00:49:44;;;;;;;;;;;20.80;35.00;;;;;;505320;236;1092;-44
2021/04/18 00:51:44;;;;;;;;;;;20.30;35.90;;;;;;505200;235;2189;-44
2021/04/18 00:53:46;;;;;;;;;;;20.00;36.40;;;;;;505830;235;1066;-44
2021/04/18 00:55:47;;;;;;;;;;;19.80;37.00;;;;;;505824;235;1498;-44
2021/04/18 00:57:48;;;;;;;;;;;19.60;37.30;;;;;;505710;235;1174;-44
2021/04/18 00:59:50;;;;;;;;;;;19.50;37.40;;;;;;505579;235;1185;-44
2021/04/18 01:01:51;;;;;;;;;;;19.40;37.60;;;;;;505237;235;1207;-44
2021/04/18 01:03:52;;;;;;;;;;;19.40;37.80;;;;;;505734;235;1108;-44
2021/04/18 01:05:53;;;;;;;;;;;19.30;38.00;;;;;;505513;235;1135;-44
2021/04/18 01:07:55;;;;;;;;;;;19.20;38.10;;;;;;505293;235;1138;-44
2021/04/18 01:09:57;;;;;;;;;;;19.10;38.20;;;;;;505344;235;1111;-45
2021/04/18 01:11:57;;;;;;;;;;;19.10;38.30;;;;;;505484;235;2138;-44
2021/04/18 01:13:58;;;;;;;;;;;19.10;38.40;;;;;;505684;236;1030;-44
2021/04/18 01:16:00;;;;;;;;;;;19.00;38.50;;;;;;505271;234;1111;-44
2021/04/18 01:18:01;;;;;;;;;;;18.90;38.50;;;;;;505772;236;1063;-44
2021/04/18 01:20:02;;;;;;;;;;;18.90;38.60;;;;;;505472;235;1133;-44
2021/04/18 01:22:04;;;;;;;;;;;18.90;38.60;;;;;;505347;235;1349;-44
2021/04/18 01:24:05;;;;;;;;;;;18.90;38.70;;;;;;505323;235;1037;-44
2021/04/18 01:26:06;;;;;;;;;;;18.80;38.70;;;;;;505485;235;1155;-44
2021/04/18 01:28:07;;;;;;;;;;;18.80;38.80;;;;;;505779;236;1027;-44
2021/04/18 01:30:09;;;;;;;;;;;18.70;38.80;;;;;;505270;235;1139;-44
2021/04/18 01:32:10;;;;;;;;;;;18.70;38.80;;;;;;505350;234;2189;-44
2021/04/18 01:34:11;;;;;;;;;;;18.70;38.90;;;;;;505302;235;1062;-44
2021/04/18 01:36:12;;;;;;;;;;;18.70;38.90;;;;;;505746;235;1118;-44
2021/04/18 01:38:14;;;;;;;;;;;18.60;38.90;;;;;;505765;235;1067;-44
2021/04/18 01:40:15;;;;;;;;;;;18.60;39.00;;;;;;505284;235;1063;-44
2021/04/18 01:42:16;;;;;;;;;;;18.60;39.00;;;;;;505227;235;1289;-44
2021/04/18 01:44:18;;;;;;;;;;;18.60;39.10;;;;;;505255;235;1042;-44
2021/04/18 01:46:19;;;;;;;;;;;18.60;39.00;;;;;;505231;236;1195;-44
2021/04/18 01:48:20;;;;;;;;;;;18.50;39.10;;;;;;505268;235;1019;-44
2021/04/18 01:50:22;;;;;;;;;;;18.50;39.10;;;;;;505637;235;1104;-44
2021/04/18 01:52:23;;;;;;;;;;;18.50;39.20;;;;;;505384;234;2170;-44
2021/04/18 01:54:24;;;;;;;;;;;18.50;39.10;;;;;;505437;235;1060;-44
2021/04/18 01:56:26;;;;;;;;;;;18.50;39.10;;;;;;505304;235;1046;-44
2021/04/18 01:58:27;;;;;;;;;;;18.40;39.20;;;;;;505710;235;1035;-44
2021/04/18 02:00:28;;;;;;;;;;;18.40;39.20;;;;;;505286;235;1238;-44
2021/04/18 02:02:30;;;;;;;;;;;18.40;39.30;;;;;;505448;235;1174;-44
2021/04/18 02:04:31;;;;;;;;;;;18.40;39.20;;;;;;505257;236;1177;-44
2021/04/18 02:06:32;;;;;;;;;;;18.40;39.30;;;;;;505367;235;998;-44
2021/04/18 02:08:33;;;;;;;;;;;18.30;39.30;;;;;;505252;235;1032;-44
2021/04/18 02:10:35;;;;;;;;;;;18.30;39.30;;;;;;505831;235;1019;-44
2021/04/18 02:12:36;;;;;;;;;;;18.30;39.30;;;;;;505400;235;2138;-44
2021/04/18 02:14:37;;;;;;;;;;;18.30;39.40;;;;;;505791;234;1077;-44
2021/04/18 02:16:39;;;;;;;;;;;18.30;39.40;;;;;;505335;236;1131;-44
2021/04/18 02:18:40;;;;;;;;;;;18.30;39.40;;;;;;505773;235;1050;-44
2021/04/18 02:20:41;;;;;;;;;;;18.20;39.40;;;;;;505528;235;1057;-44
2021/04/18 02:22:42;;;;;;;;;;;18.20;39.40;;;;;;505333;235;1225;-44
2021/04/18 02:24:44;;;;;;;;;;;18.20;39.50;;;;;;505779;235;1090;-44
2021/04/18 02:26:45;;;;;;;;;;;18.20;39.50;;;;;;505634;235;1050;-44
2021/04/18 02:28:46;;;;;;;;;;;18.20;39.50;;;;;;505285;235;1112;-44
2021/04/18 02:30:47;;;;;;;;;;;18.20;39.50;;;;;;505416;235;1076;-44
2021/04/18 02:32:49;;;;;;;;;;;18.20;39.60;;;;;;505262;235;2130;-44
2021/04/18 02:34:50;;;;;;;;;;;18.10;39.50;;;;;;505352;235;1058;-44
2021/04/18 02:36:51;;;;;;;;;;;18.10;39.50;;;;;;505347;235;1085;-44
2021/04/18 02:38:53;;;;;;;;;;;18.10;39.60;;;;;;505493;235;1072;-44
2021/04/18 02:40:54;;;;;;;;;;;18.10;39.60;;;;;;505481;234;1073;-44
2021/04/18 02:42:55;;;;;;;;;;;18.10;39.60;;;;;;505413;235;1019;-44
2021/04/18 02:44:56;;;;;;;;;;;18.10;39.50;;;;;;505643;235;1071;-44
2021/04/18 02:46:58;;;;;;;;;;;18.10;39.60;;;;;;505374;235;1102;-44
2021/04/18 02:49:02;;;;;;;;;;;18.10;39.60;;;;;;505804;235;1108;-44
2021/04/18 02:51:00;;;;;;;;;;;18.10;39.60;;;;;;505473;235;1367;-44
2021/04/18 02:53:01;;;;;;;;;;;18.10;39.60;;;;;;505720;235;2201;-44
2021/04/18 02:55:03;;;;;;;;;;;18.10;39.60;;;;;;505257;235;1049;-44
2021/04/18 02:57:04;;;;;;;;;;;18.00;39.60;;;;;;505269;235;1380;-44
2021/04/18 02:59:05;;;;;;;;;;;18.00;39.60;;;;;;505259;236;1027;-44
2021/04/18 03:01:07;;;;;;;;;;;18.00;39.80;;;;;;505664;235;1151;-44
2021/04/18 03:03:08;;;;;;;;;;;18.00;39.80;;;;;;505272;235;1166;-44
2021/04/18 03:05:09;;;;;;;;;;;18.00;39.70;;;;;;505555;235;1007;-44
2021/04/18 03:07:10;;;;;;;;;;;18.00;39.70;;;;;;505571;234;1130;-44
2021/04/18 03:09:12;;;;;;;;;;;18.00;39.70;;;;;;505607;235;1009;-44
2021/04/18 03:11:13;;;;;;;;;;;18.10;39.50;;;;;;505311;236;1214;-44
2021/04/18 03:13:14;;;;;;;;;;;18.50;38.70;;;;;;505540;235;2118;-44
2021/04/18 03:15:16;;;;;;;;;;;18.90;37.90;;;;;;505375;235;1127;-44
2021/04/18 03:17:17;;;;;;;;;;;19.20;37.30;;;;;;505310;235;1564;-44
2021/04/18 03:19:18;;;;;;;;;;;19.40;36.90;;;;;;505615;234;1439;-44
2021/04/18 03:21:19;;;;;;;;;;;19.50;36.50;;;;;;505270;235;1561;-44
2021/04/18 03:23:21;;;;;;;;;;;19.70;36.30;;;;;;505319;234;1089;-44
2021/04/18 03:25:22;;;;;;;;;;;19.70;36.00;;;;;;505275;235;1045;-45
2021/04/18 03:27:23;;;;;;;;;;;19.90;35.90;;;;;;505578;235;1263;-44
2021/04/18 03:29:25;;;;;;;;;;;19.90;35.70;;;;;;505267;235;1339;-44
2021/04/18 03:31:26;;;;;;;;;;;20.00;35.70;;;;;;505720;232;1266;-44
2021/04/18 03:33:27;;;;;;;;;;;20.00;35.50;;;;;;505513;235;2139;-44
2021/04/18 03:35:28;;;;;;;;;;;20.10;35.50;;;;;;505382;235;1057;-45
2021/04/18 03:37:30;;;;;;;;;;;20.20;35.40;;;;;;505280;235;1034;-44
2021/04/18 03:39:31;;;;;;;;;;;20.20;35.20;;;;;;505588;235;1198;-44
2021/04/18 03:41:32;;;;;;;;;;;20.30;35.20;;;;;;505637;235;1054;-44
2021/04/18 03:43:33;;;;;;;;;;;20.30;35.00;;;;;;505580;235;1303;-44
2021/04/18 03:45:35;;;;;;;;;;;20.40;35.00;;;;;;505480;235;1118;-44
2021/04/18 03:47:36;;;;;;;;;;;20.40;35.00;;;;;;505227;236;1154;-44
2021/04/18 03:49:37;;;;;;;;;;;20.40;34.90;;;;;;505439;235;1057;-44
2021/04/18 03:51:39;;;;;;;;;;;20.40;34.80;;;;;;505351;235;1096;-45
2021/04/18 03:53:40;;;;;;;;;;;20.50;34.80;;;;;;505250;235;2142;-44
2021/04/18 03:55:41;;;;;;;;;;;20.50;34.70;;;;;;505548;236;1161;-44
2021/04/18 03:57:43;;;;;;;;;;;20.60;34.70;;;;;;505468;235;1078;-45
2021/04/18 03:59:44;;;;;;;;;;;20.50;34.70;;;;;;505332;235;1074;-45
2021/04/18 04:01:45;;;;;;;;;;;20.60;34.60;;;;;;505252;235;1138;-44
2021/04/18 04:03:47;;;;;;;;;;;20.60;34.60;;;;;;505554;235;1170;-45
2021/04/18 04:05:48;;;;;;;;;;;20.60;34.60;;;;;;505779;235;1143;-45
2021/04/18 04:07:50;;;;;;;;;;;20.60;34.60;;;;;;505344;235;1211;-45
2021/04/18 04:09:51;;;;;;;;;;;20.60;34.50;;;;;;505598;236;1066;-44
2021/04/18 04:11:52;;;;;;;;;;;20.70;34.50;;;;;;505788;235;1354;-44
2021/04/18 04:13:53;;;;;;;;;;;20.70;34.40;;;;;;505335;234;2177;-45
2021/04/18 04:15:55;;;;;;;;;;;20.70;34.40;;;;;;505675;236;1192;-44
2021/04/18 04:17:56;;;;;;;;;;;20.80;34.40;;;;;;505477;235;1330;-45
2021/04/18 04:19:57;;;;;;;;;;;20.80;34.40;;;;;;505466;234;1028;-44
2021/04/18 04:21:59;;;;;;;;;;;20.80;34.40;;;;;;505490;236;1254;-45
2021/04/18 04:24:00;;;;;;;;;;;20.80;34.40;;;;;;505300;234;1057;-44
2021/04/18 04:26:01;;;;;;;;;;;20.80;34.40;;;;;;505479;235;1171;-45
2021/04/18 04:28:02;;;;;;;;;;;20.80;34.30;;;;;;505285;235;1052;-44
2021/04/18 04:30:04;;;;;;;;;;;20.80;34.40;;;;;;505321;235;1019;-45
2021/04/18 04:32:05;;;;;;;;;;;20.80;34.30;;;;;;505768;235;2121;-44
2021/04/18 04:34:06;;;;;;;;;;;20.90;34.40;;;;;;505314;235;1101;-44
2021/04/18 04:36:07;;;;;;;;;;;20.90;34.30;;;;;;505616;235;1428;-44
2021/04/18 04:38:09;;;;;;;;;;;20.90;34.30;;;;;;505307;235;1008;-44
2021/04/18 04:40:10;;;;;;;;;;;20.90;34.30;;;;;;505822;235;1087;-45
2021/04/18 04:42:11;;;;;;;;;;;20.90;34.20;;;;;;505498;235;1320;-45
2021/04/18 04:44:16;;;;;;;;;;;20.90;34.20;;;;;;505490;235;1055;-45
2021/04/18 04:46:14;;;;;;;;;;;20.90;34.20;;;;;;505337;235;2237;-44
2021/04/18 04:48:16;;;;;;;;;;;20.90;34.20;;;;;;505324;235;1170;-44
2021/04/18 04:50:17;;;;;;;;;;;20.90;34.20;;;;;;505569;235;1039;-44
2021/04/18 04:52:18;;;;;;;;;;;21.00;34.20;;;;;;505266;235;2172;-45
2021/04/18 04:54:19;;;;;;;;;;;21.00;34.20;;;;;;505425;236;1087;-44
2021/04/18 04:56:21;;;;;;;;;;;21.00;34.20;;;;;;505514;235;1053;-44
2021/04/18 04:58:22;;;;;;;;;;;21.00;34.20;;;;;;505726;235;1228;-45
2021/04/18 05:00:23;;;;;;;;;;;21.00;34.10;;;;;;505314;235;1059;-45
2021/04/18 05:02:24;;;;;;;;;;;21.00;34.10;;;;;;505318;235;1738;-45
2021/04/18 05:04:26;;;;;;;;;;;21.00;34.10;;;;;;505317;235;1154;-45
2021/04/18 05:06:27;;;;;;;;;;;21.00;34.10;;;;;;505716;234;1042;-45
2021/04/18 05:08:28;;;;;;;;;;;21.10;34.10;;;;;;505412;236;1082;-45
2021/04/18 05:10:30;;;;;;;;;;;21.10;34.10;;;;;;505445;235;1056;-45
2021/04/18 05:12:31;;;;;;;;;;;21.10;34.10;;;;;;505395;235;2143;-44
2021/04/18 05:14:32;;;;;;;;;;;21.10;34.10;;;;;;505444;235;1092;-45
2021/04/18 05:16:33;;;;;;;;;;;21.10;34.10;;;;;;505412;235;1156;-44
2021/04/18 05:18:35;;;;;;;;;;;21.10;34.10;;;;;;505372;235;1176;-44
2021/04/18 05:20:36;;;;;;;;;;;21.10;34.10;;;;;;505706;235;1030;-44
2021/04/18 05:22:37;;;;;;;;;;;21.10;34.10;;;;;;505259;235;1320;-45
2021/04/18 05:24:39;;;;;;;;;;;21.10;34.10;;;;;;505253;236;1035;-44
2021/04/18 05:26:40;;;;;;;;;;;21.10;34.10;;;;;;505445;234;1375;-45
2021/04/18 05:28:41;;;;;;;;;;;21.10;34.10;;;;;;505291;235;1082;-45
2021/04/18 05:30:42;;;;;;;;;;;21.10;34.10;;;;;;505292;235;1041;-44
2021/04/18 05:32:44;;;;;;;;;;;21.20;34.10;;;;;;505403;234;2192;-44
2021/04/18 05:34:45;;;;;;;;;;;21.10;34.00;;;;;;505405;234;1129;-44
2021/04/18 05:36:46;;;;;;;;;;;21.20;34.10;;;;;;505321;235;1049;-44
2021/04/18 05:38:48;;;;;;;;;;;21.20;34.00;;;;;;505614;235;1108;-45
2021/04/18 05:40:49;;;;;;;;;;;21.20;34.00;;;;;;505285;235;1018;-45
2021/04/18 05:42:50;;;;;;;;;;;21.20;34.00;;;;;;505524;235;1008;-44
2021/04/18 05:44:51;;;;;;;;;;;21.20;34.00;;;;;;505793;236;1068;-45
2021/04/18 05:46:53;;;;;;;;;;;21.20;34.00;;;;;;505678;234;1113;-45
2021/04/18 05:48:54;;;;;;;;;;;21.20;34.00;;;;;;505488;235;1322;-45
2021/04/18 05:50:55;;;;;;;;;;;21.20;34.00;;;;;;505730;234;1181;-44
2021/04/18 05:52:56;;;;;;;;;;;21.20;34.00;;;;;;505192;235;2182;-44
2021/04/18 05:54:58;;;;;;;;;;;21.20;34.00;;;;;;505705;235;1041;-45
2021/04/18 05:56:59;;;;;;;;;;;21.20;34.00;;;;;;505306;235;1654;-45
2021/04/18 05:59:00;;;;;;;;;;;21.20;34.00;;;;;;505336;235;1033;-45
2021/04/18 06:01:02;;;;;;;;;;;21.30;33.90;;;;;;505259;235;1263;-45
2021/04/18 06:03:03;;;;;;;;;;;21.30;34.00;;;;;;505315;234;1199;-44
2021/04/18 06:05:04;;;;;;;;;;;21.30;34.00;;;;;;505344;235;1184;-44
2021/04/18 06:07:05;;;;;;;;;;;21.30;33.90;;;;;;505102;235;1129;-45
2021/04/18 06:09:07;;;;;;;;;;;21.30;33.90;;;;;;505236;236;1073;-45
2021/04/18 06:11:08;;;;;;;;;;;21.30;34.00;;;;;;505784;235;1068;-44
2021/04/18 06:13:09;;;;;;;;;;;21.30;34.00;;;;;;505578;235;2138;-44
2021/04/18 06:15:10;;;;;;;;;;;21.30;33.90;;;;;;505413;235;1060;-45
2021/04/18 06:17:12;;;;;;;;;;;21.30;33.90;;;;;;505730;235;1053;-44
2021/04/18 06:19:13;;;;;;;;;;;21.30;33.90;;;;;;505402;235;1173;-44
2021/04/18 06:21:14;;;;;;;;;;;21.30;33.90;;;;;;505226;235;1069;-45
2021/04/18 06:23:16;;;;;;;;;;;21.30;33.90;;;;;;505658;235;1064;-44
2021/04/18 06:25:17;;;;;;;;;;;21.30;34.00;;;;;;505365;235;1056;-45
2021/04/18 06:27:18;;;;;;;;;;;21.30;33.90;;;;;;505446;235;1133;-45
2021/04/18 06:29:19;;;;;;;;;;;21.30;33.90;;;;;;505627;235;1069;-45
2021/04/18 06:31:21;;;;;;;;;;;21.40;33.90;;;;;;505752;236;1222;-45
2021/04/18 06:33:22;;;;;;;;;;;21.40;33.90;;;;;;505527;235;2185;-45
2021/04/18 06:35:23;;;;;;;;;;;21.30;33.90;;;;;;505427;235;1192;-44
2021/04/18 06:37:25;;;;;;;;;;;21.30;33.90;;;;;;505350;234;1541;-44
2021/04/18 06:39:26;;;;;;;;;;;21.30;33.90;;;;;;505630;235;1223;-44
2021/04/18 06:41:27;;;;;;;;;;;21.40;33.90;;;;;;505325;235;1313;-45
2021/04/18 06:43:29;;;;;;;;;;;21.40;33.90;;;;;;505753;234;1040;-44
2021/04/18 06:45:30;;;;;;;;;;;21.40;33.90;;;;;;505351;235;2122;-44
2021/04/18 06:47:31;;;;;;;;;;;21.40;33.90;;;;;;505593;235;1085;-44
2021/04/18 06:49:32;;;;;;;;;;;21.40;33.90;;;;;;505394;235;1158;-45
2021/04/18 06:51:34;;;;;;;;;;;21.40;33.90;;;;;;505251;235;1163;-45
2021/04/18 06:53:35;;;;;;;;;;;21.40;33.90;;;;;;505238;235;2138;-45
2021/04/18 06:55:36;;;;;;;;;;;21.40;34.00;;;;;;505285;235;1039;-45
2021/04/18 06:57:37;;;;;;;;;;;21.40;33.90;;;;;;505247;235;1180;-44
2021/04/18 06:59:39;;;;;;;;;;;21.40;33.90;;;;;;505317;235;1038;-45
2021/04/18 07:01:40;;;;;;;;;;;21.40;33.90;;;;;;505559;235;1122;-45
2021/04/18 07:03:41;;;;;;;;;;;21.40;33.90;;;;;;505307;234;1083;-44
2021/04/18 07:05:42;;;;;;;;;;;21.40;33.90;;;;;;505318;235;1355;-44
2021/04/18 07:07:44;;;;;;;;;;;21.40;33.90;;;;;;505281;234;1068;-45
2021/04/18 07:09:46;;;;;;;;;;;21.40;33.90;;;;;;505435;235;1042;-45
2021/04/18 07:11:46;;;;;;;;;;;21.50;33.90;;;;;;505175;235;2032;-44
2021/04/18 07:13:48;;;;;;;;;;;21.40;33.80;;;;;;505371;235;2141;-44
2021/04/18 07:15:49;;;;;;;;;;;21.50;33.90;;;;;;505480;236;1174;-45
2021/04/18 07:17:50;;;;;;;;;;;21.40;33.90;;;;;;505525;235;1071;-44
2021/04/18 07:19:52;;;;;;;;;;;21.40;33.80;;;;;;505669;235;1237;-45
2021/04/18 07:21:53;;;;;;;;;;;21.40;33.80;;;;;;505786;235;1131;-44
2021/04/18 07:23:54;;;;;;;;;;;21.50;33.90;;;;;;505615;235;1057;-44
2021/04/18 07:25:56;;;;;;;;;;;21.40;33.90;;;;;;505823;235;1153;-45
2021/04/18 07:27:57;;;;;;;;;;;21.40;33.80;;;;;;505319;235;1154;-45
2021/04/18 07:29:58;;;;;;;;;;;21.50;33.90;;;;;;505301;236;1216;-45
2021/04/18 07:31:59;;;;;;;;;;;21.50;33.90;;;;;;505259;234;1189;-45
2021/04/18 07:34:01;;;;;;;;;;;21.50;33.90;;;;;;505656;235;2138;-44
2021/04/18 07:36:02;;;;;;;;;;;21.50;33.90;;;;;;505375;235;1496;-45
2021/04/18 07:38:03;;;;;;;;;;;21.50;33.90;;;;;;505321;235;1197;-45
2021/04/18 07:40:05;;;;;;;;;;;21.50;33.90;;;;;;505215;236;1043;-45
2021/04/18 07:42:06;;;;;;;;;;;21.50;33.90;;;;;;505315;235;1368;-45
2021/04/18 07:44:14;;;;;;;;;;;21.50;33.80;;;;;;505777;235;1070;-45
2021/04/18 07:46:09;;;;;;;;;;;21.50;33.80;;;;;;504813;236;1936;-44
2021/04/18 07:48:10;;;;;;;;;;;21.50;33.80;;;;;;505312;235;1142;-45
2021/04/18 07:50:11;;;;;;;;;;;21.50;33.80;;;;;;505649;235;1170;-45
2021/04/18 07:52:15;;;;;;;;;;;21.50;33.90;;;;;;505620;235;1151;-45
2021/04/18 07:54:14;;;;;;;;;;;21.50;33.80;;;;;;505072;236;2194;-45
2021/04/18 07:56:15;;;;;;;;;;;21.50;33.80;;;;;;505611;235;1107;-45
2021/04/18 07:58:16;;;;;;;;;;;21.50;33.90;;;;;;505347;235;1099;-45
2021/04/18 08:00:18;;;;;;;;;;;21.50;33.90;;;;;;505836;235;1045;-45
2021/04/18 08:02:19;;;;;;;;;;;21.50;33.90;;;;;;505698;235;1130;-45
2021/04/18 08:04:20;;;;;;;;;;;21.50;33.80;;;;;;505337;235;1096;-44
2021/04/18 08:06:25;;;;;;;;;;;21.50;33.80;;;;;;505419;235;1235;-45
2021/04/18 08:08:23;;;;;;;;;;;21.50;33.90;;;;;;505556;235;2316;-45
2021/04/18 08:10:24;;;;;;;;;;;21.50;33.90;;;;;;505255;234;1106;-45
2021/04/18 08:12:25;;;;;;;;;;;21.50;33.90;;;;;;505432;235;1160;-45
2021/04/18 08:14:27;;;;;;;;;;;21.60;33.90;;;;;;505272;235;2181;-45
2021/04/18 08:16:28;;;;;;;;;;;21.60;33.80;;;;;;505257;234;1050;-45
2021/04/18 08:18:29;;;;;;;;;;;21.60;33.90;;;;;;505258;236;1023;-45
2021/04/18 08:20:31;;;;;;;;;;;21.60;33.80;;;;;;505691;235;1162;-44
2021/04/18 08:22:32;;;;;;;;;;;21.60;33.90;;;;;;505712;235;1260;-45
2021/04/18 08:24:34;;;;;;;;;;;21.50;33.80;;;;;;505680;235;1237;-45
2021/04/18 08:26:35;;;;;;;;;;;21.50;33.90;;;;;;505598;235;1201;-45
2021/04/18 08:28:36;;;;;;;;;;;21.60;33.90;;;;;;505429;235;1063;-44
2021/04/18 08:30:38;;;;;;;;;;;21.60;33.90;;;;;;505813;235;1052;-45
2021/04/18 08:32:39;;;;;;;;;;;21.60;33.90;;;;;;505278;235;1495;-45
2021/04/18 08:34:42;;;;;;;;;;;21.60;33.90;;;;;;505710;235;2130;-44
2021/04/18 08:36:42;;;;;;;;;;;21.60;33.80;;;;;;505081;236;1971;-44
2021/04/18 08:38:43;;;;;;;;;;;21.60;33.80;;;;;;505632;234;1074;-44
2021/04/18 08:40:45;;;;;;;;;;;21.60;33.80;;;;;;505572;236;1023;-44
2021/04/18 08:42:46;;;;;;;;;;;21.60;33.80;;;;;;505214;236;1850;-45
2021/04/18 08:44:47;;;;;;;;;;;21.60;33.80;;;;;;505500;235;1037;-45
2021/04/18 08:46:48;;;;;;;;;;;21.60;33.90;;;;;;505311;235;1559;-45
2021/04/18 08:48:49;;;;;;;;;;;21.60;33.90;;;;;;505544;235;1056;-45
2021/04/18 08:50:51;;;;;;;;;;;21.60;33.80;;;;;;505437;235;1240;-45
2021/04/18 08:52:52;;;;;;;;;;;21.60;33.90;;;;;;505676;235;1176;-45
2021/04/18 08:54:53;;;;;;;;;;;21.60;33.80;;;;;;505371;236;2131;-45
2021/04/18 08:56:55;;;;;;;;;;;21.60;33.90;;;;;;505286;235;1186;-44
2021/04/18 08:58:56;;;;;;;;;;;21.60;33.80;;;;;;505340;234;1080;-44
2021/04/18 09:00:57;;;;;;;;;;;21.60;33.90;;;;;;505685;235;1464;-45
2021/04/18 09:02:59;;;;;;;;;;;21.60;33.90;;;;;;505744;235;1117;-44
2021/04/18 09:05:00;;;;;;;;;;;21.60;33.90;;;;;;505287;235;2356;-45
2021/04/18 09:07:01;;;;;;;;;;;21.60;33.90;;;;;;505200;235;1208;-45
2021/04/18 09:09:02;;;;;;;;;;;21.60;33.80;;;;;;505324;235;1051;-45
2021/04/18 09:11:03;;;;;;;;;;;21.60;33.90;;;;;;505273;236;1426;-45
2021/04/18 09:13:05;;;;;;;;;;;21.60;33.90;;;;;;505518;235;1036;-45
2021/04/18 09:15:06;;;;;;;;;;;21.60;33.80;;;;;;505282;235;2122;-45
2021/04/18 09:17:07;;;;;;;;;;;21.70;33.90;;;;;;505342;235;1087;-44
2021/04/18 09:19:09;;;;;;;;;;;21.60;33.80;;;;;;505296;235;1142;-45
2021/04/18 09:21:10;;;;;;;;;;;21.60;33.80;;;;;;505237;235;1551;-45
2021/04/18 09:23:11;;;;;;;;;;;21.60;33.80;;;;;;505602;235;1096;-45
2021/04/18 09:25:13;;;;;;;;;;;21.60;33.80;;;;;;505509;236;1094;-44
2021/04/18 09:27:14;;;;;;;;;;;21.70;33.80;;;;;;505255;234;2178;-45
2021/04/18 09:29:15;;;;;;;;;;;21.60;33.80;;;;;;505257;235;1156;-45
2021/04/18 09:31:17;;;;;;;;;;;21.60;33.80;;;;;;505753;235;1159;-45
2021/04/18 09:33:18;;;;;;;;;;;21.60;33.80;;;;;;505521;235;1032;-45
2021/04/18 09:35:19;;;;;;;;;;;21.60;33.80;;;;;;505304;235;2185;-45
2021/04/18 09:37:21;;;;;;;;;;;21.70;33.90;;;;;;505288;235;1255;-44
2021/04/18 09:39:22;;;;;;;;;;;21.70;33.80;;;;;;505514;234;1055;-45
2021/04/18 09:41:23;;;;;;;;;;;21.60;33.90;;;;;;505462;235;1082;-45
2021/04/18 09:43:24;;;;;;;;;;;21.60;33.90;;;;;;505537;235;1062;-45
2021/04/18 09:45:26;;;;;;;;;;;21.70;33.90;;;;;;505226;235;1077;-45
2021/04/18 09:47:27;;;;;;;;;;;21.60;33.80;;;;;;505412;236;1119;-45
2021/04/18 09:49:28;;;;;;;;;;;21.60;33.80;;;;;;505662;235;989;-45
2021/04/18 09:51:29;;;;;;;;;;;21.70;33.90;;;;;;505361;234;1183;-45
2021/04/18 09:53:31;;;;;;;;;;;21.60;33.80;;;;;;505284;235;1058;-44
2021/04/18 09:55:32;;;;;;;;;;;21.70;33.80;;;;;;505753;235;2180;-45
2021/04/18 09:57:33;;;;;;;;;;;21.70;33.90;;;;;;505228;235;1161;-45
2021/04/18 09:59:34;;;;;;;;;;;21.60;33.80;;;;;;505839;235;1170;-45
2021/04/18 10:01:36;;;;;;;;;;;21.70;33.90;;;;;;505313;235;1222;-45
2021/04/18 10:03:37;;;;;;;;;;;21.60;33.80;;;;;;505300;235;1037;-45
2021/04/18 10:05:38;;;;;;;;;;;21.70;33.80;;;;;;505759;235;1302;-45
2021/04/18 10:07:40;;;;;;;;;;;21.70;33.80;;;;;;505326;236;1674;-45
2021/04/18 10:09:41;;;;;;;;;;;21.70;33.80;;;;;;505429;234;1092;-44
2021/04/18 10:11:43;;;;;;;;;;;21.70;33.90;;;;;;505504;235;1299;-45
2021/04/18 10:13:44;;;;;;;;;;;21.80;33.80;;;;;;505573;235;1127;-45
2021/04/18 10:15:45;;;;;;;;;;;21.70;33.80;;;;;;505226;235;2225;-45
2021/04/18 10:17:46;;;;;;;;;;;21.70;33.80;;;;;;505304;235;1156;-44
2021/04/18 10:19:48;;;;;;;;;;;21.70;33.80;;;;;;505444;234;975;-44
2021/04/18 10:21:49;;;;;;;;;;;21.70;33.90;;;;;;505364;235;1292;-45
2021/04/18 10:23:50;;;;;;;;;;;21.70;33.80;;;;;;505367;235;1111;-45
2021/04/18 10:25:51;;;;;;;;;;;21.70;33.80;;;;;;505370;235;1318;-44
2021/04/18 10:27:53;;;;;;;;;;;21.70;33.80;;;;;;505285;234;1288;-44
2021/04/18 10:29:54;;;;;;;;;;;21.70;33.80;;;;;;505656;235;1241;-45
2021/04/18 10:31:55;;;;;;;;;;;21.70;33.80;;;;;;505200;235;1537;-45
2021/04/18 10:33:57;;;;;;;;;;;21.70;33.80;;;;;;505517;235;1080;-45
2021/04/18 10:35:58;;;;;;;;;;;21.70;33.80;;;;;;505562;235;2102;-44
2021/04/18 10:37:59;;;;;;;;;;;21.70;33.70;;;;;;505269;235;1193;-44
2021/04/18 10:40:01;;;;;;;;;;;21.80;33.70;;;;;;505214;235;1044;-44
2021/04/18 10:42:02;;;;;;;;;;;21.70;33.80;;;;;;505405;235;1364;-44
2021/04/18 10:44:03;;;;;;;;;;;21.90;33.60;;;;;;505482;235;1031;-44
2021/04/18 10:46:04;;;;;;;;;;;21.60;33.80;;;;;;505788;235;1050;-44
2021/04/18 10:48:06;;;;;;;;;;;21.30;34.50;;;;;;505634;235;1060;-44
2021/04/18 10:50:07;;;;;;;;;;;21.00;35.10;;;;;;505450;235;1057;-44
2021/04/18 10:52:08;;;;;;;;;;;20.70;35.70;;;;;;505856;235;1014;-44
2021/04/18 10:54:10;;;;;;;;;;;20.40;36.10;;;;;;505368;235;2185;-44
2021/04/18 10:56:11;;;;;;;;;;;20.30;36.40;;;;;;505348;235;1058;-44
2021/04/18 10:58:14;;;;;;;;;;;20.10;36.80;;;;;;505761;236;1219;-44
2021/04/18 11:00:14;;;;;;;;;;;19.90;37.10;;;;;;505549;235;1416;-44
2021/04/18 11:02:15;;;;;;;;;;;19.80;37.40;;;;;;505527;235;1067;-44
2021/04/18 11:04:16;;;;;;;;;;;19.60;37.60;;;;;;505394;235;1079;-44
2021/04/18 11:06:18;;;;;;;;;;;19.50;37.70;;;;;;505273;235;1057;-44
2021/04/18 11:08:19;;;;;;;;;;;19.50;37.90;;;;;;505636;235;1184;-44
2021/04/18 11:10:20;;;;;;;;;;;19.40;38.00;;;;;;505595;235;1082;-44
2021/04/18 11:12:22;;;;;;;;;;;19.40;38.10;;;;;;505482;234;1132;-44
2021/04/18 11:14:23;;;;;;;;;;;19.30;38.20;;;;;;505275;235;2186;-45
2021/04/18 11:16:24;;;;;;;;;;;19.20;38.30;;;;;;505768;235;1152;-44
2021/04/18 11:18:25;;;;;;;;;;;19.20;38.40;;;;;;505694;235;1056;-44
2021/04/18 11:20:27;;;;;;;;;;;19.20;38.40;;;;;;505332;235;1129;-44
2021/04/18 11:22:28;;;;;;;;;;;19.10;38.50;;;;;;505253;236;1055;-44
2021/04/18 11:24:29;;;;;;;;;;;19.10;38.50;;;;;;505424;235;1131;-44
2021/04/18 11:26:30;;;;;;;;;;;19.10;38.60;;;;;;505262;235;1268;-44
2021/04/18 11:28:32;;;;;;;;;;;19.10;38.60;;;;;;505463;235;1153;-44
2021/04/18 11:30:33;;;;;;;;;;;19.00;38.60;;;;;;505562;234;1019;-44
2021/04/18 11:32:34;;;;;;;;;;;19.00;38.60;;;;;;505151;235;1470;-44
2021/04/18 11:34:36;;;;;;;;;;;19.00;38.70;;;;;;505366;235;2130;-44
2021/04/18 11:36:37;;;;;;;;;;;19.00;38.80;;;;;;505334;235;1450;-44
2021/04/18 11:38:38;;;;;;;;;;;18.90;38.70;;;;;;505467;235;1164;-44
2021/04/18 11:40:39;;;;;;;;;;;18.90;38.80;;;;;;505294;235;1021;-44
2021/04/18 11:42:41;;;;;;;;;;;18.90;38.90;;;;;;505221;235;1956;-44
2021/04/18 11:44:42;;;;;;;;;;;18.90;38.80;;;;;;505607;235;1044;-45
2021/04/18 11:46:43;;;;;;;;;;;18.90;38.80;;;;;;505234;235;1271;-44
2021/04/18 11:48:45;;;;;;;;;;;18.90;38.90;;;;;;505791;235;1113;-44
2021/04/18 11:50:46;;;;;;;;;;;18.90;38.90;;;;;;505674;235;1028;-44
2021/04/18 11:52:47;;;;;;;;;;;18.80;38.80;;;;;;505761;235;1048;-44
2021/04/18 11:54:48;;;;;;;;;;;18.80;38.90;;;;;;505342;234;2185;-44
2021/04/18 11:56:50;;;;;;;;;;;18.70;38.90;;;;;;505537;235;1177;-44